createdAt,value
2023-05-23T00:02:53.691Z,14.85
2023-05-23T00:05:47.583Z,15.95
2023-05-23T00:08:41.600Z,15.38
2023-05-23T00:11:35.579Z,15.32
2023-05-23T00:14:30.600Z,15.32
2023-05-23T00:17:17.661Z,15.57
2023-05-23T00:19:57.604Z,15.48
2023-05-23T00:22:49.600Z,15.30
2023-05-23T00:25:22.708Z,15.00
2023-05-23T00:28:10.611Z,14.85
2023-05-23T00:30:43.710Z,16.13
2023-05-23T00:33:30.599Z,15.52
2023-05-23T00:36:04.019Z,14.65
2023-05-23T00:38:52.612Z,14.90
2023-05-23T00:41:27.007Z,15.73
2023-05-23T00:44:13.603Z,15.05
2023-05-23T00:47:00.612Z,14.35
2023-05-23T00:49:47.623Z,14.70
2023-05-23T00:52:28.636Z,15.32
2023-05-23T00:55:16.599Z,15.23
2023-05-23T00:57:56.594Z,14.48
2023-05-23T01:00:56.683Z,15.38
2023-05-23T01:03:43.725Z,15.63
2023-05-23T01:06:17.649Z,14.88
2023-05-23T01:09:08.602Z,14.30
2023-05-23T01:11:51.790Z,14.70
2023-05-23T01:15:02.652Z,16.48
2023-05-23T01:17:58.750Z,15.23
2023-05-23T01:20:51.624Z,16.55
2023-05-23T01:24:00.718Z,16.05
2023-05-23T01:27:10.623Z,15.40
2023-05-23T01:29:58.609Z,15.95
2023-05-23T01:32:46.723Z,16.88
2023-05-23T01:35:24.718Z,15.43
2023-05-23T01:38:11.634Z,16.10
2023-05-23T01:40:45.736Z,15.88
2023-05-23T01:43:32.621Z,16.13
2023-05-23T01:46:07.800Z,15.15
2023-05-23T01:48:54.673Z,16.23
2023-05-23T01:51:30.767Z,15.07
2023-05-23T01:54:18.635Z,14.73
2023-05-23T01:56:52.748Z,14.88
2023-05-23T01:59:39.650Z,14.93
2023-05-23T02:02:19.797Z,16.50
2023-05-23T02:05:07.668Z,14.60
2023-05-23T02:07:47.638Z,14.90
2023-05-23T02:10:34.642Z,14.68
2023-05-23T02:13:07.793Z,15.30
2023-05-23T02:15:54.652Z,15.77
2023-05-23T02:18:29.336Z,15.85
2023-05-23T02:21:15.666Z,16.42
2023-05-23T02:23:48.752Z,16.38
2023-05-23T02:26:35.654Z,15.45
2023-05-23T02:29:11.757Z,15.60
2023-05-23T02:31:58.655Z,14.30
2023-05-23T02:34:32.370Z,14.70
2023-05-23T02:37:19.669Z,16.38
2023-05-23T02:39:52.759Z,15.60
2023-05-23T02:42:39.707Z,15.93
2023-05-23T02:45:13.745Z,14.52
2023-05-23T02:48:00.723Z,15.43
2023-05-23T02:50:40.675Z,16.38
2023-05-23T02:53:34.648Z,14.93
2023-05-23T02:56:22.674Z,15.48
2023-05-23T02:58:56.110Z,15.38
2023-05-23T03:01:42.707Z,15.85
2023-05-23T03:04:16.198Z,15.98
2023-05-23T03:07:03.085Z,16.15
2023-05-23T03:09:37.795Z,16.35
2023-05-23T03:12:24.689Z,15.82
2023-05-23T03:15:04.776Z,15.63
2023-05-23T03:17:51.769Z,16.08
2023-05-23T03:20:24.785Z,16.75
2023-05-23T03:23:11.692Z,16.15
2023-05-23T03:25:44.809Z,16.75
2023-05-23T03:28:31.700Z,16.20
2023-05-23T03:31:05.845Z,15.45
2023-05-23T03:33:52.702Z,14.98
2023-05-23T03:36:28.602Z,16.42
2023-05-23T03:39:15.727Z,16.48
2023-05-23T03:41:55.732Z,16.38
2023-05-23T03:44:49.703Z,16.73
2023-05-23T03:47:36.790Z,15.45
2023-05-23T03:50:10.862Z,16.23
2023-05-23T03:52:57.719Z,16.45
2023-05-23T03:55:38.944Z,17.20
2023-05-23T03:58:25.701Z,16.05
2023-05-23T04:01:05.720Z,16.05
2023-05-23T04:03:59.764Z,15.55
2023-05-23T04:06:46.710Z,14.85
2023-05-23T04:09:19.813Z,14.88
2023-05-23T04:12:06.705Z,15.38
2023-05-23T04:14:39.824Z,15.88
2023-05-23T04:17:26.741Z,15.85
2023-05-23T04:20:01.040Z,15.57
2023-05-23T04:22:47.713Z,15.23
2023-05-23T04:25:27.706Z,15.43
2023-05-23T04:28:23.714Z,15.20
2023-05-23T04:31:10.776Z,15.40
2023-05-23T04:33:43.855Z,15.27
2023-05-23T04:36:30.717Z,13.73
2023-05-23T04:39:10.717Z,12.95
2023-05-23T04:42:04.719Z,14.57
2023-05-23T04:44:51.724Z,14.63
2023-05-23T04:47:30.466Z,13.75
2023-05-23T04:50:17.774Z,13.90
2023-05-23T04:52:51.079Z,13.88
2023-05-23T04:55:38.925Z,14.65
2023-05-23T04:58:13.083Z,13.88
2023-05-23T05:01:06.749Z,14.85
2023-05-23T05:04:00.773Z,14.73
2023-05-23T05:06:47.731Z,15.98
2023-05-23T05:09:28.712Z,14.75
2023-05-23T05:12:22.753Z,14.45
2023-05-23T05:15:10.732Z,15.93
2023-05-23T05:17:44.005Z,13.82
2023-05-23T05:20:30.746Z,14.95
2023-05-23T05:23:04.895Z,15.43
2023-05-23T05:25:51.757Z,14.45
2023-05-23T05:28:25.086Z,15.50
2023-05-23T05:31:11.771Z,15.35
2023-05-23T05:33:46.162Z,15.38
2023-05-23T05:36:32.750Z,15.25
2023-05-23T05:39:20.747Z,14.57
2023-05-23T05:42:14.750Z,15.30
2023-05-23T05:45:08.763Z,14.25
2023-05-23T05:48:02.833Z,15.93
2023-05-23T05:50:51.720Z,14.75
2023-05-23T05:53:24.857Z,14.00
2023-05-23T05:56:26.765Z,14.60
2023-05-23T05:59:20.749Z,15.95
2023-05-23T06:02:14.782Z,14.65
2023-05-23T06:05:01.828Z,14.55
2023-05-23T06:07:42.775Z,14.95
2023-05-23T06:10:30.758Z,16.42
2023-05-23T06:13:11.758Z,13.32
2023-05-23T06:16:05.812Z,15.93
2023-05-23T06:18:52.794Z,15.50
2023-05-23T06:21:25.862Z,15.75
2023-05-23T06:24:12.797Z,15.23
2023-05-23T06:26:45.877Z,14.77
2023-05-23T06:29:32.777Z,14.48
2023-05-23T06:32:06.170Z,14.57
2023-05-23T06:34:52.785Z,15.40
2023-05-23T06:37:25.929Z,13.63
2023-05-23T06:40:12.795Z,14.77
2023-05-23T06:42:52.798Z,14.85
2023-05-23T06:45:41.824Z,14.90
2023-05-23T06:48:14.881Z,13.63
2023-05-23T06:51:01.862Z,14.27
2023-05-23T06:53:41.780Z,14.07
2023-05-23T06:56:32.802Z,14.50
2023-05-23T06:59:12.823Z,14.27
2023-05-23T07:02:06.803Z,14.65
2023-05-23T07:05:00.829Z,17.05
2023-05-23T07:07:54.780Z,16.38
2023-05-23T07:10:42.305Z,16.23
2023-05-23T07:13:18.890Z,14.80
2023-05-23T07:16:05.814Z,14.23
2023-05-23T07:18:38.945Z,13.77
2023-05-23T07:21:25.841Z,15.63
2023-05-23T07:24:05.818Z,14.63
2023-05-23T07:26:59.802Z,14.95
2023-05-23T07:29:46.871Z,13.60
2023-05-23T07:32:19.928Z,13.75
2023-05-23T07:35:06.798Z,15.25
2023-05-23T07:37:48.383Z,15.20
2023-05-23T07:40:50.180Z,15.10
2023-05-23T07:43:48.828Z,15.07
2023-05-23T07:46:35.842Z,12.90
2023-05-23T07:49:15.826Z,14.00
2023-05-23T07:52:09.834Z,14.20
2023-05-23T07:55:03.859Z,14.20
2023-05-23T07:57:50.815Z,13.75
2023-05-23T08:00:24.906Z,13.65
2023-05-23T08:03:11.986Z,13.77
2023-05-23T08:05:44.934Z,13.27
2023-05-23T08:08:24.851Z,13.80
2023-05-23T08:11:04.847Z,14.38
2023-05-23T08:13:37.930Z,15.55
2023-05-23T08:16:24.847Z,13.63
2023-05-23T08:18:57.984Z,12.98
2023-05-23T08:21:44.863Z,13.90
2023-05-23T08:24:17.975Z,14.88
2023-05-23T08:27:04.849Z,14.18
2023-05-23T08:29:38.508Z,14.23
2023-05-23T08:32:24.980Z,14.95
2023-05-23T08:34:58.423Z,14.48
2023-05-23T08:37:44.848Z,14.32
2023-05-23T08:40:31.904Z,13.05
2023-05-23T08:43:25.850Z,12.90
2023-05-23T08:46:12.889Z,13.93
2023-05-23T08:48:47.181Z,14.38
2023-05-23T08:51:34.854Z,15.00
2023-05-23T08:54:15.861Z,12.75
2023-05-23T08:57:02.864Z,13.77
2023-05-23T08:59:44.867Z,13.48
2023-05-23T09:02:38.891Z,13.57
2023-05-23T09:05:32.903Z,13.52
2023-05-23T09:08:19.885Z,13.57
2023-05-23T09:11:02.896Z,13.55
2023-05-23T09:13:56.889Z,14.27
2023-05-23T09:16:43.978Z,14.07
2023-05-23T09:19:25.943Z,16.08
2023-05-23T09:22:19.933Z,15.07
2023-05-23T09:25:06.885Z,15.00
2023-05-23T09:27:41.346Z,13.93
2023-05-23T09:30:27.933Z,13.95
2023-05-23T09:33:12.948Z,13.98
2023-05-23T09:36:07.943Z,15.68
2023-05-23T09:38:59.301Z,14.35
2023-05-23T09:41:43.971Z,12.20
2023-05-23T09:44:38.969Z,12.40
2023-05-23T09:47:33.963Z,13.40
2023-05-23T09:50:21.036Z,13.13
2023-05-23T09:52:55.094Z,13.90
2023-05-23T09:55:41.938Z,14.45
2023-05-23T09:58:16.039Z,13.88
2023-05-23T10:01:04.948Z,13.05
2023-05-23T10:03:42.031Z,14.52
2023-05-23T10:06:51.947Z,13.75
2023-05-23T10:09:33.941Z,14.52
2023-05-23T10:12:45.943Z,12.13
2023-05-23T10:15:48.914Z,12.48
2023-05-23T10:18:52.985Z,13.43
2023-05-23T10:21:54.925Z,13.75
2023-05-23T10:24:35.943Z,13.80
2023-05-23T10:27:22.930Z,12.98
2023-05-23T10:30:02.910Z,13.25
2023-05-23T10:32:58.008Z,14.20
2023-05-23T10:35:55.992Z,13.73
2023-05-23T10:39:00.924Z,14.73
2023-05-23T10:41:58.935Z,13.90
2023-05-23T10:44:46.036Z,14.65
2023-05-23T10:47:36.006Z,13.65
2023-05-23T10:50:15.944Z,13.60
2023-05-23T10:53:09.932Z,12.38
2023-05-23T10:56:03.934Z,11.82
2023-05-23T10:58:50.966Z,12.73
2023-05-23T11:01:26.204Z,14.30
2023-05-23T11:04:20.125Z,12.93
2023-05-23T11:07:06.948Z,12.27
2023-05-23T11:09:40.080Z,13.18
2023-05-23T11:12:51.967Z,13.52
2023-05-23T11:15:31.981Z,14.27
2023-05-23T11:18:42.148Z,13.07
2023-05-23T11:21:36.957Z,13.55
2023-05-23T11:24:27.023Z,13.02
2023-05-23T11:27:04.167Z,13.68
2023-05-23T11:29:51.019Z,13.40
2023-05-23T11:32:33.049Z,12.02
2023-05-23T11:35:19.992Z,12.23
2023-05-23T11:38:00.053Z,13.45
2023-05-23T11:40:55.028Z,13.95
2023-05-23T11:43:42.077Z,12.55
2023-05-23T11:46:19.308Z,13.45
2023-05-23T11:49:07.073Z,12.80
2023-05-23T11:51:40.167Z,14.52
2023-05-23T11:54:31.108Z,12.70
2023-05-23T11:57:04.110Z,12.52
2023-05-23T11:59:51.011Z,13.40
2023-05-23T12:02:24.258Z,14.15
2023-05-23T12:05:18.075Z,13.32
2023-05-23T12:07:53.096Z,14.07
2023-05-23T12:10:40.311Z,13.27
2023-05-23T12:13:25.065Z,13.18
2023-05-23T12:16:09.083Z,10.95
2023-05-23T12:18:49.093Z,13.45
2023-05-23T12:21:22.081Z,12.07
2023-05-23T12:24:28.040Z,12.05
2023-05-23T12:27:05.282Z,11.60
2023-05-23T12:30:00.038Z,12.15
2023-05-23T12:32:33.181Z,13.65
2023-05-23T12:35:22.047Z,13.02
2023-05-23T12:38:02.040Z,12.25
2023-05-23T12:40:49.025Z,13.10
2023-05-23T12:43:22.194Z,12.75
2023-05-23T12:46:11.975Z,11.80
2023-05-23T12:48:45.189Z,11.88
2023-05-23T12:51:32.158Z,10.57
2023-05-23T12:54:05.192Z,13.10
2023-05-23T12:56:52.083Z,12.98
2023-05-23T12:59:32.202Z,12.30
2023-05-23T13:02:26.149Z,12.93
2023-05-23T13:05:14.038Z,14.20
2023-05-23T13:07:54.091Z,12.90
2023-05-23T13:10:48.042Z,12.90
2023-05-23T13:13:35.079Z,11.85
2023-05-23T13:16:09.576Z,12.93
2023-05-23T13:18:56.124Z,14.15
2023-05-23T13:21:29.176Z,15.18
2023-05-23T13:24:16.083Z,13.15
2023-05-23T13:26:57.069Z,13.05
2023-05-23T13:29:44.097Z,15.52
2023-05-23T13:32:17.173Z,14.30
2023-05-23T13:35:04.093Z,13.13
2023-05-23T13:37:37.248Z,13.93
2023-05-23T13:40:26.103Z,13.85
2023-05-23T13:42:59.193Z,12.63
2023-05-23T13:45:46.081Z,13.07
2023-05-23T13:48:19.264Z,14.90
2023-05-23T13:51:06.134Z,14.35
2023-05-23T13:53:39.215Z,14.75
2023-05-23T13:56:26.086Z,14.27
2023-05-23T13:58:59.178Z,14.02
2023-05-23T14:01:46.156Z,14.05
2023-05-23T14:04:30.084Z,13.70
2023-05-23T14:07:26.111Z,13.73
2023-05-23T14:10:21.108Z,14.55
2023-05-23T14:13:08.098Z,14.18
2023-05-23T14:15:42.601Z,14.60
2023-05-23T14:18:30.100Z,14.02
2023-05-23T14:21:03.218Z,15.18
2023-05-23T14:23:50.098Z,14.30
2023-05-23T14:26:23.492Z,14.52
2023-05-23T14:29:10.089Z,13.52
2023-05-23T14:31:43.260Z,16.42
2023-05-23T14:34:31.165Z,16.23
2023-05-23T14:37:04.171Z,14.82
2023-05-23T14:39:51.157Z,14.52
2023-05-23T14:42:24.171Z,15.00
2023-05-23T14:45:12.102Z,16.50
2023-05-23T14:47:54.120Z,15.55
2023-05-23T14:50:49.123Z,16.48
2023-05-23T14:53:38.120Z,15.40
2023-05-23T14:56:11.317Z,15.38
2023-05-23T14:58:59.165Z,14.30
2023-05-23T15:01:32.279Z,14.48
2023-05-23T15:04:19.187Z,13.65
2023-05-23T15:06:52.245Z,16.60
2023-05-23T15:09:39.138Z,16.30
2023-05-23T15:12:19.129Z,14.75
2023-05-23T15:15:13.129Z,14.25
2023-05-23T15:18:11.172Z,14.57
2023-05-23T15:20:58.118Z,14.43
2023-05-23T15:23:31.515Z,14.63
2023-05-23T15:26:18.122Z,13.73
2023-05-23T15:28:52.205Z,15.30
2023-05-23T15:31:39.500Z,15.00
2023-05-23T15:34:20.100Z,15.30
2023-05-23T15:37:14.181Z,14.98
2023-05-23T15:40:09.147Z,13.82
2023-05-23T15:43:03.123Z,13.98
2023-05-23T15:45:50.277Z,15.10
2023-05-23T15:48:24.206Z,14.93
2023-05-23T15:51:11.134Z,15.20
2023-05-23T15:53:59.903Z,15.15
2023-05-23T15:56:48.189Z,15.07
2023-05-23T15:59:28.177Z,15.13
2023-05-23T16:02:16.128Z,14.80
2023-05-23T16:05:10.192Z,14.98
2023-05-23T16:08:04.192Z,14.10
2023-05-23T16:10:51.140Z,15.93
2023-05-23T16:13:24.259Z,14.55
2023-05-23T16:16:11.213Z,17.00
2023-05-23T16:18:44.242Z,18.48
2023-05-23T16:21:31.151Z,18.75
2023-05-23T16:24:04.254Z,18.52
2023-05-23T16:26:51.131Z,18.75
2023-05-23T16:29:24.337Z,16.15
2023-05-23T16:32:11.283Z,15.20
2023-05-23T16:34:48.227Z,14.27
2023-05-23T16:37:38.190Z,14.50
2023-05-23T16:40:13.338Z,13.70
2023-05-23T16:43:00.209Z,15.05
2023-05-23T16:45:33.385Z,15.00
2023-05-23T16:48:20.232Z,13.70
2023-05-23T16:50:53.258Z,14.95
2023-05-23T16:53:40.202Z,15.05
2023-05-23T16:56:20.194Z,15.23
2023-05-23T16:59:07.161Z,14.25
2023-05-23T17:01:40.558Z,15.00
2023-05-23T17:04:27.158Z,16.05
2023-05-23T17:07:07.156Z,16.88
2023-05-23T17:09:54.173Z,14.95
2023-05-23T17:12:34.360Z,16.38
2023-05-23T17:15:28.205Z,16.88
2023-05-23T17:18:15.177Z,15.00
2023-05-23T17:20:55.173Z,19.10
2023-05-23T17:23:42.187Z,18.35
2023-05-23T17:26:16.101Z,15.82
2023-05-23T17:29:04.200Z,15.07
2023-05-23T17:31:37.313Z,14.93
2023-05-23T17:34:24.226Z,15.85
2023-05-23T17:36:57.300Z,16.80
2023-05-23T17:39:44.201Z,16.60
2023-05-23T17:42:18.106Z,15.68
2023-05-23T17:45:05.194Z,16.23
2023-05-23T17:47:38.373Z,15.98
2023-05-23T17:50:25.212Z,17.40
2023-05-23T17:52:58.340Z,16.73
2023-05-23T17:55:45.238Z,15.00
2023-05-23T17:58:18.292Z,17.25
2023-05-23T18:01:05.288Z,17.27
2023-05-23T18:03:41.076Z,19.95
2023-05-23T18:06:28.208Z,18.55
2023-05-23T18:09:01.518Z,21.83
2023-05-23T18:11:48.221Z,22.80
2023-05-23T18:14:21.347Z,21.00
2023-05-23T18:17:08.252Z,21.52
2023-05-23T18:19:49.210Z,21.23
2023-05-23T18:22:38.213Z,21.15
2023-05-23T18:25:19.278Z,21.75
2023-05-23T18:28:09.251Z,20.63
2023-05-23T18:30:42.522Z,22.35
2023-05-23T18:33:29.326Z,22.40
2023-05-23T18:36:09.223Z,22.08
2023-05-23T18:38:56.254Z,19.58
2023-05-23T18:41:36.218Z,20.45
2023-05-23T18:44:24.225Z,20.52
2023-05-23T18:46:57.438Z,19.15
2023-05-23T18:49:44.228Z,18.40
2023-05-23T18:52:17.328Z,18.23
2023-05-23T18:55:04.261Z,19.55
2023-05-23T18:57:45.347Z,20.23
2023-05-23T19:00:39.357Z,20.45
2023-05-23T19:03:26.276Z,22.00
2023-05-23T19:06:02.222Z,21.45
2023-05-23T19:08:49.211Z,23.60
2023-05-23T19:11:22.679Z,22.95
2023-05-23T19:14:09.253Z,23.50
2023-05-23T19:16:43.627Z,22.60
2023-05-23T19:19:31.726Z,19.30
2023-05-23T19:22:12.248Z,19.48
2023-05-23T19:25:06.267Z,20.63
2023-05-23T19:27:53.232Z,20.67
2023-05-23T19:30:33.223Z,20.98
2023-05-23T19:33:21.251Z,20.15
2023-05-23T19:36:01.255Z,18.83
2023-05-23T19:38:48.274Z,19.98
2023-05-23T19:41:29.243Z,21.42
2023-05-23T19:44:23.276Z,20.92
2023-05-23T19:47:17.242Z,17.77
2023-05-23T19:50:04.234Z,19.95
2023-05-23T19:52:37.565Z,19.98
2023-05-23T19:55:24.280Z,20.65
2023-05-23T19:57:57.427Z,17.90
2023-05-23T20:00:44.446Z,18.85
2023-05-23T20:03:25.289Z,18.27
2023-05-23T20:06:20.603Z,16.98
2023-05-23T20:09:14.276Z,16.35
2023-05-23T20:12:08.289Z,15.85
2023-05-23T20:14:55.246Z,17.00
2023-05-23T20:17:29.922Z,17.75
2023-05-23T20:20:17.266Z,16.08
2023-05-23T20:22:50.449Z,17.85
2023-05-23T20:25:38.279Z,17.30
2023-05-23T20:28:12.396Z,17.98
2023-05-23T20:30:59.314Z,19.33
2023-05-23T20:33:41.277Z,22.27
2023-05-23T20:36:35.276Z,20.08
2023-05-23T20:39:30.271Z,21.08
2023-05-23T20:42:24.273Z,19.50
2023-05-23T20:45:14.282Z,19.63
2023-05-23T20:47:55.300Z,18.15
2023-05-23T20:50:43.475Z,18.50
2023-05-23T20:53:24.287Z,17.15
2023-05-23T20:56:11.323Z,19.02
2023-05-23T20:58:45.806Z,18.92
2023-05-23T21:01:33.416Z,20.75
2023-05-23T21:04:13.302Z,17.60
2023-05-23T21:07:08.289Z,18.13
2023-05-23T21:09:55.304Z,20.50
2023-05-23T21:12:28.393Z,21.88
2023-05-23T21:15:16.304Z,21.33
2023-05-23T21:17:51.354Z,20.65
2023-05-23T21:20:38.299Z,21.95
2023-05-23T21:23:18.316Z,22.60
2023-05-23T21:26:12.282Z,22.85
2023-05-23T21:28:59.309Z,28.25
2023-05-23T21:31:40.648Z,29.08
2023-05-23T21:34:28.294Z,25.67
2023-05-23T21:37:01.404Z,23.95
2023-05-23T21:39:51.893Z,24.33
2023-05-23T21:42:26.481Z,23.42
2023-05-23T21:45:14.319Z,21.10
2023-05-23T21:47:54.416Z,20.23
2023-05-23T21:50:48.324Z,20.13
2023-05-23T21:53:35.308Z,18.58
2023-05-23T21:56:08.427Z,20.35
2023-05-23T21:58:55.342Z,19.25
2023-05-23T22:01:35.357Z,20.30
2023-05-23T22:04:25.350Z,20.13
2023-05-23T22:07:06.333Z,21.10
2023-05-23T22:10:01.337Z,23.02
2023-05-23T22:12:48.331Z,24.42
2023-05-23T22:15:21.461Z,25.33
2023-05-23T22:18:08.326Z,22.02
2023-05-23T22:20:41.639Z,23.70
2023-05-23T22:23:28.340Z,22.45
2023-05-23T22:26:08.400Z,24.27
2023-05-23T22:28:55.356Z,22.70
2023-05-23T22:31:29.045Z,23.48
2023-05-23T22:34:16.350Z,23.52
2023-05-23T22:36:57.585Z,23.10
2023-05-23T22:39:53.345Z,24.45
2023-05-23T22:42:47.355Z,23.90
2023-05-23T22:45:35.352Z,23.13
2023-05-23T22:48:08.592Z,23.88
2023-05-23T22:50:55.347Z,22.92
2023-05-23T22:53:35.369Z,23.83
2023-05-23T22:56:29.375Z,23.65
2023-05-23T22:59:23.385Z,23.15
2023-05-23T23:02:17.440Z,24.20
2023-05-23T23:05:11.362Z,22.20
2023-05-23T23:07:58.426Z,21.95
2023-05-23T23:10:31.498Z,22.02
2023-05-23T23:13:20.376Z,22.17
2023-05-23T23:15:54.485Z,22.65
2023-05-23T23:18:41.376Z,23.70
2023-05-23T23:21:21.384Z,23.73
2023-05-23T23:24:15.366Z,22.33
2023-05-23T23:27:09.389Z,23.75
2023-05-23T23:29:56.408Z,24.98
2023-05-23T23:32:36.502Z,23.45
2023-05-23T23:35:23.390Z,23.35
2023-05-23T23:37:56.467Z,25.58
2023-05-23T23:40:43.583Z,24.17
2023-05-23T23:43:17.465Z,23.15
2023-05-23T23:46:04.435Z,23.17
2023-05-23T23:48:44.397Z,24.05
2023-05-23T23:51:31.401Z,22.60
2023-05-23T23:54:04.483Z,21.45
2023-05-23T23:56:51.382Z,20.90
2023-05-23T23:59:24.494Z,20.73
